Amarillo, TX (79111)

9:36 PM CDT on October 01, 2014 (GMT -0500)
Amarillo International | Change Station
CLOSE
Current Station
Airport
Location: Amarillo,
Elevation: 3606 ft
Nearby Weather Stations

Elev 3606 ft 35.22 °N, 101.72 °W | Updated 43 minutes ago

Clear
Clear
69 °F
Feels Like 69 °F
N
7
Wind Variable Wind from South

Today
High -- | Low -- °F
--% Chance of Precip.
Yesterday
High -- | Low -- °F
Precip. -- in
7:41 AM 7:30 PM
First Quarter, 53% visible
Pressure 29.70 in
Visibility 10.0 miles
Clouds Clear
Dew Point 43 °F
Humidity 39%
Rainfall 0.00 in
Snow Depth Not available.
UV 0 out of 12
Pollen 9.10 out of 12
Air Quality Not available.
Flu Activity Not available.
METAR KAMA 020153Z 17006KT 10SM CLR 21/06 A2981 RMK AO2 SLP057 T02060061

More Conditions Fewer Conditions

Pressure 29.70 in
Visibility 10.0 miles
Clouds Clear
Dew Point 43 °F
Humidity 39%
Rainfall 0.00 in
Snow Depth Not available.
UV 0 out of 12
Pollen 9.10 out of 12
Air Quality Not available.
Flu Activity Not available.
METAR KAMA 020153Z 17006KT 10SM CLR 21/06 A2981 RMK AO2 SLP057 T02060061

More Conditions Fewer Conditions

10-Day Weather Forecast

Almanac

Astronomy

Oct. 01, 2014 Rise Set
Actual Time 7:41 AM CDT 7:30 PM CDT
Civil Twilight 7:16 AM CDT 7:55 PM CDT
Nautical Twilight 6:46 AM CDT 8:25 PM CDT
Astronomical Twilight 6:17 AM CDT 8:54 PM CDT
Moon 2:35 PM CDT (10/1) 12:13 AM CDT (10/1)
Length of Visible Light 12h 39m
Length of Day
11h 48m
Tomorrow will be 2m 12s shorter.
First Quarter, 53% of the Moon is Illuminated
Today
First Quarter
Oct 8
Full
Oct 15
Last Quarter
Oct 23
New
Oct 30
First Quarter

Today's Extremes

State Highs State Lows

Community

WunderPhotos

Upload Photos

1,758,147 photos uploaded!

WunderBlogs® & News

Nearby

Snow Depth

Station Depth Elevation
No new snow has been reported.

Earthquake Activity

City Distance Mag. Time & Date
No recent earthquake activity has been reported nearby.
Minimum magnitude displayed is 2.5.

Coastal Water Temperatures

Place Temperature
No Stations Reporting

Nearby Weather Stations